Time;durP1;ratioP1;P1;durP2;ratioP2;P2;SDS_P1;SDS_P2;PMS_P1;PMS_P2;Temp;Humidity;BMP_temperature;BMP_pressure;BME280_temperature;BME280_humidity;BME280_pressure;Samples;Min_cycle;Max_cycle;Signal;HPM_P1;HPM_P2
2021/10/06 00:00:14;;;;;;;;;;;;;;;20.06;62.52;100339.38;2087082;28;19962;-43
2021/10/06 00:01:14;;;;;;;;;;;;;;;20.07;62.73;100343.81;2085403;28;19905;-43
2021/10/06 00:02:14;;;;;;;;;;;;;;;20.08;62.62;100344.69;2082026;28;19920;-43
2021/10/06 00:03:15;;;;;;;;;;;;;;;20.08;62.65;100348.28;2084189;28;19982;-43
2021/10/06 00:04:15;;;;;;;;;;;;;;;20.07;62.73;100349.28;2074967;28;19924;-43
2021/10/06 00:05:16;;;;;;;;;;;;;;;20.08;62.71;100355.63;2074725;28;20449;-43
2021/10/06 00:06:16;;;;;;;;;;;;;;;20.07;62.51;100352.03;2085871;28;20266;-43
2021/10/06 00:07:17;;;;;;;;;;;;;;;20.07;62.52;100349.28;2084238;28;20245;-43
2021/10/06 00:08:17;;;;;;;;;;;;;;;20.08;62.51;100359.22;2084808;28;19960;-43
2021/10/06 00:09:17;;;;;;;;;;;;;;;20.07;62.74;100349.28;2082943;28;19923;-43
2021/10/06 00:10:18;;;;;;;;;;;;;;;20.07;62.76;100354.75;2079427;28;19917;-43
2021/10/06 00:11:18;;;;;;;;;;;;;;;20.08;62.71;100356.47;2083169;28;20097;-43
2021/10/06 00:12:18;;;;;;;;;;;;;;;20.07;62.75;100354.75;2082407;28;20178;-43
2021/10/06 00:13:19;;;;;;;;;;;;;;;20.07;62.80;100349.28;2083982;28;19968;-43
2021/10/06 00:14:20;;;;;;;;;;;;;;;20.08;62.75;100355.63;2084296;28;19931;-43
2021/10/06 00:15:20;;;;;;;;;;;;;;;20.07;62.59;100348.44;2081193;28;19979;-43
2021/10/06 00:16:21;;;;;;;;;;;;;;;20.07;62.68;100354.75;2083105;28;20512;-43
2021/10/06 00:17:22;;;;;;;;;;;;;;;20.07;62.75;100357.50;2080292;28;19917;-43
2021/10/06 00:18:24;;;;;;;;;;;;;;;20.06;62.61;100353.06;2084774;28;19916;-43
2021/10/06 00:19:24;;;;;;;;;;;;;;;20.06;62.74;100358.53;2083250;28;19917;-43
2021/10/06 00:20:24;;;;;;;;;;;;;;;20.06;62.64;100357.63;2083746;28;20329;-44
2021/10/06 00:21:25;;;;;;;;;;;;;;;20.06;62.77;100369.47;2084447;28;19917;-43
2021/10/06 00:22:25;;;;;;;;;;;;;;;20.06;63.07;100369.47;2082530;28;19992;-43
2021/10/06 00:23:28;;;;;;;;;;;;;;;20.06;62.97;100366.75;2083111;28;20315;-43
2021/10/06 00:24:28;;;;;;;;;;;;;;;20.06;62.98;100371.31;2086941;28;19909;-43
2021/10/06 00:25:29;;;;;;;;;;;;;;;20.05;62.86;100367.72;2084497;28;19927;-43
2021/10/06 00:26:29;;;;;;;;;;;;;;;20.07;63.10;100375.81;2086971;28;19959;-43
2021/10/06 00:27:29;;;;;;;;;;;;;;;20.06;63.01;100377.69;2083850;28;20671;-43
2021/10/06 00:28:30;;;;;;;;;;;;;;;20.06;62.99;100383.16;2087382;28;19908;-42
2021/10/06 00:29:30;;;;;;;;;;;;;;;20.06;63.07;100380.41;2083748;28;19927;-43
2021/10/06 00:30:31;;;;;;;;;;;;;;;20.06;62.91;100374.94;2086807;28;19908;-43
2021/10/06 00:31:31;;;;;;;;;;;;;;;20.06;62.89;100374.94;2085259;28;19951;-42
2021/10/06 00:32:31;;;;;;;;;;;;;;;20.06;62.84;100379.53;2081952;28;19916;-43
2021/10/06 00:33:32;;;;;;;;;;;;;;;20.05;62.90;100362.25;2087905;28;20493;-42
2021/10/06 00:34:32;;;;;;;;;;;;;;;20.06;63.04;100374.06;2084816;28;20073;-43
2021/10/06 00:35:33;;;;;;;;;;;;;;;20.05;62.96;100362.25;2084134;28;20086;-43
2021/10/06 00:36:33;;;;;;;;;;;;;;;20.04;62.92;100355.06;2074836;28;19952;-45
2021/10/06 00:37:33;;;;;;;;;;;;;;;20.05;62.95;100358.66;2075849;28;19928;-42
2021/10/06 00:38:34;;;;;;;;;;;;;;;20.05;62.95;100361.41;2086161;28;20404;-43
2021/10/06 00:39:34;;;;;;;;;;;;;;;20.05;63.16;100362.25;2086578;28;20119;-42
2021/10/06 00:40:34;;;;;;;;;;;;;;;20.05;62.96;100350.47;2082782;28;20548;-43
2021/10/06 00:41:35;;;;;;;;;;;;;;;20.05;62.95;100343.09;2085202;28;20552;-43
2021/10/06 00:42:36;;;;;;;;;;;;;;;20.04;63.08;100338.66;2085644;28;19926;-43
2021/10/06 00:43:36;;;;;;;;;;;;;;;20.04;63.13;100344.13;2074737;28;19956;-42
2021/10/06 00:44:37;;;;;;;;;;;;;;;20.04;63.10;100337.75;2074880;28;19909;-42
2021/10/06 00:45:38;;;;;;;;;;;;;;;20.04;63.10;100338.66;2085920;28;20312;-43
2021/10/06 00:46:38;;;;;;;;;;;;;;;20.03;63.03;100342.38;2087264;28;19909;-42
2021/10/06 00:47:38;;;;;;;;;;;;;;;20.04;62.94;100335.91;2085795;28;20170;-43
2021/10/06 00:48:39;;;;;;;;;;;;;;;20.04;63.16;100333.19;2084237;28;20701;-42
2021/10/06 00:49:40;;;;;;;;;;;;;;;20.04;63.18;100332.28;2085409;28;19924;-42
2021/10/06 00:50:41;;;;;;;;;;;;;;;20.04;63.16;100343.25;2086113;28;20003;-42
2021/10/06 00:51:41;;;;;;;;;;;;;;;20.04;62.92;100346.88;2084669;28;19916;-42
2021/10/06 00:52:44;;;;;;;;;;;;;;;20.04;62.94;100349.59;2084513;28;19920;-43
2021/10/06 00:53:44;;;;;;;;;;;;;;;20.03;63.14;100347.00;2078083;28;20640;-42
2021/10/06 00:54:44;;;;;;;;;;;;;;;20.04;62.96;100362.41;2085112;28;19923;-42
2021/10/06 00:55:45;;;;;;;;;;;;;;;20.04;63.16;100352.34;2085170;28;19916;-43
2021/10/06 00:56:45;;;;;;;;;;;;;;;20.04;62.92;100360.53;2087627;28;19952;-42
2021/10/06 00:57:45;;;;;;;;;;;;;;;20.04;63.09;100360.53;2085078;28;19920;-43
2021/10/06 00:58:46;;;;;;;;;;;;;;;20.03;62.88;100353.34;2086027;28;19916;-43
2021/10/06 00:59:46;;;;;;;;;;;;;;;20.04;62.95;100348.72;2084751;28;20614;-43
2021/10/06 01:00:46;;;;;;;;;;;;;;;20.04;63.04;100348.72;2082664;28;19916;-43
2021/10/06 01:01:47;;;;;;;;;;;;;;;20.04;62.87;100354.19;2085269;28;19952;-42
2021/10/06 01:02:47;;;;;;;;;;;;;;;20.03;63.05;100353.34;2083006;28;19927;-42
2021/10/06 01:03:47;;;;;;;;;;;;;;;20.03;63.04;100361.53;2077644;28;19997;-42
2021/10/06 01:04:48;;;;;;;;;;;;;;;20.04;62.92;100355.06;2085187;28;19959;-43
2021/10/06 01:05:49;;;;;;;;;;;;;;;20.04;62.88;100365.13;2083483;28;20014;-42
2021/10/06 01:06:49;;;;;;;;;;;;;;;20.03;63.05;100361.53;2077285;28;19920;-42
2021/10/06 01:07:49;;;;;;;;;;;;;;;20.04;63.08;100365.13;2073943;28;19913;-43
2021/10/06 01:08:50;;;;;;;;;;;;;;;20.04;63.00;100366.03;2085607;28;20573;-43
2021/10/06 01:09:51;;;;;;;;;;;;;;;20.04;63.03;100366.03;2085145;28;19916;-42
2021/10/06 01:10:53;;;;;;;;;;;;;;;20.04;63.01;100365.13;2083302;28;20449;-42
2021/10/06 01:11:54;;;;;;;;;;;;;;;20.03;62.88;100372.47;2076123;28;19936;-43
2021/10/06 01:12:54;;;;;;;;;;;;;;;20.03;63.04;100369.75;2072924;28;20408;-43
2021/10/06 01:13:56;;;;;;;;;;;;;;;20.03;62.94;100364.28;2085251;28;20190;-43
2021/10/06 01:14:56;;;;;;;;;;;;;;;20.03;63.01;100372.47;2082731;28;20262;-43
2021/10/06 01:15:57;;;;;;;;;;;;;;;20.03;63.04;100372.47;2082136;28;19917;-43
2021/10/06 01:16:57;;;;;;;;;;;;;;;20.02;63.03;100368.03;2084917;28;19965;-43
2021/10/06 01:17:58;;;;;;;;;;;;;;;20.03;62.81;100368.91;2084109;28;20308;-43
2021/10/06 01:18:58;;;;;;;;;;;;;;;20.02;62.98;100368.03;2085723;28;19920;-43
2021/10/06 01:19:58;;;;;;;;;;;;;;;20.02;62.94;100367.19;2080761;28;20384;-43
2021/10/06 01:21:09;;;;;;;;;;;;;;;20.02;63.00;100368.03;2084755;28;19916;-43
2021/10/06 01:22:13;;;;;;;;;;;;;;;20.03;62.85;100368.91;2085271;28;20059;-43
2021/10/06 01:23:14;;;;;;;;;;;;;;;20.01;63.02;100366.28;2082457;28;19924;-43
2021/10/06 01:24:15;;;;;;;;;;;;;;;20.02;62.93;100373.50;2084591;28;19926;-43
2021/10/06 01:25:16;;;;;;;;;;;;;;;20.02;62.96;100378.97;2086030;28;19973;-43
2021/10/06 01:26:20;;;;;;;;;;;;;;;20.02;62.79;100372.66;2084283;28;19916;-43
2021/10/06 01:27:20;;;;;;;;;;;;;;;20.03;62.96;100374.38;2084720;28;19994;-43
2021/10/06 01:28:21;;;;;;;;;;;;;;;20.02;63.05;100378.97;2085032;28;19920;-43
2021/10/06 01:29:21;;;;;;;;;;;;;;;20.02;62.82;100378.97;2084696;28;19999;-43
2021/10/06 01:30:22;;;;;;;;;;;;;;;20.03;62.79;100374.38;2085802;28;19909;-43
2021/10/06 01:31:26;;;;;;;;;;;;;;;20.01;62.75;100377.25;2083611;28;20015;-43
2021/10/06 01:32:26;;;;;;;;;;;;;;;20.02;62.80;100373.50;2082952;28;19916;-43
2021/10/06 01:33:27;;;;;;;;;;;;;;;20.02;62.97;100383.59;2085552;28;19980;-43
2021/10/06 01:34:27;;;;;;;;;;;;;;;20.02;62.75;100378.13;2084961;28;20445;-43
2021/10/06 01:35:27;;;;;;;;;;;;;;;20.02;62.86;100387.19;2085194;28;20617;-43
2021/10/06 01:36:28;;;;;;;;;;;;;;;20.01;62.94;100385.44;2083929;28;20265;-43
2021/10/06 01:37:28;;;;;;;;;;;;;;;20.02;62.75;100383.59;2085032;28;19920;-45
2021/10/06 01:38:28;;;;;;;;;;;;;;;20.02;62.77;100387.19;2085486;28;19999;-43
2021/10/06 01:39:29;;;;;;;;;;;;;;;20.01;62.81;100385.44;2084249;28;21600;-43
2021/10/06 01:40:29;;;;;;;;;;;;;;;20.01;62.97;100388.19;2085667;28;20374;-43
2021/10/06 01:41:30;;;;;;;;;;;;;;;20.01;62.86;100390.91;2083486;28;19908;-43
2021/10/06 01:42:30;;;;;;;;;;;;;;;20.01;62.94;100388.19;2084056;28;20274;-43
2021/10/06 01:43:31;;;;;;;;;;;;;;;20.01;62.95;100396.41;2085708;28;19930;-43
2021/10/06 01:44:31;;;;;;;;;;;;;;;20.01;62.94;100382.72;2084252;28;20385;-43
2021/10/06 01:45:32;;;;;;;;;;;;;;;20.01;62.80;100384.59;2085212;28;19924;-43
2021/10/06 01:46:32;;;;;;;;;;;;;;;20.00;62.82;100383.75;2086180;28;20101;-43
2021/10/06 01:47:32;;;;;;;;;;;;;;;20.00;62.92;100375.53;2083071;28;20029;-43
2021/10/06 01:48:32;;;;;;;;;;;;;;;20.00;62.90;100380.16;2085574;28;19973;-43
2021/10/06 01:49:33;;;;;;;;;;;;;;;20.01;62.97;100374.50;2084473;28;19917;-43
2021/10/06 01:50:34;;;;;;;;;;;;;;;20.00;62.82;100383.75;2082650;28;20315;-43
2021/10/06 01:51:34;;;;;;;;;;;;;;;20.00;62.83;100375.53;2085322;28;19916;-43
2021/10/06 01:52:34;;;;;;;;;;;;;;;20.00;62.81;100381.00;2083898;28;20818;-43
2021/10/06 01:53:36;;;;;;;;;;;;;;;20.00;62.75;100380.16;2085415;28;19927;-43
2021/10/06 01:54:36;;;;;;;;;;;;;;;19.99;62.85;100379.28;2084830;28;20018;-43
2021/10/06 01:55:37;;;;;;;;;;;;;;;20.00;62.66;100375.53;2082706;28;19917;-43
2021/10/06 01:56:38;;;;;;;;;;;;;;;20.00;62.75;100377.41;2086389;28;19909;-43
2021/10/06 01:57:38;;;;;;;;;;;;;;;20.00;62.84;100375.53;2083174;28;19940;-43
2021/10/06 01:58:38;;;;;;;;;;;;;;;20.00;62.80;100378.25;2084233;28;19924;-43
2021/10/06 01:59:44;;;;;;;;;;;;;;;20.00;62.74;100375.53;2085325;28;19939;-43
2021/10/06 02:00:45;;;;;;;;;;;;;;;20.00;62.87;100364.59;2083330;28;19951;-43
2021/10/06 02:01:46;;;;;;;;;;;;;;;20.00;62.60;100370.06;2085649;28;20805;-43
2021/10/06 02:02:46;;;;;;;;;;;;;;;20.00;62.65;100369.19;2086094;28;20115;-43
2021/10/06 02:03:46;;;;;;;;;;;;;;;20.00;62.80;100364.59;2087740;28;20002;-43
2021/10/06 02:04:47;;;;;;;;;;;;;;;19.99;62.66;100362.88;2086515;28;19917;-43
2021/10/06 02:05:47;;;;;;;;;;;;;;;19.99;62.98;100362.88;2083237;28;20394;-43
2021/10/06 02:06:48;;;;;;;;;;;;;;;19.99;62.82;100362.88;2083535;28;20102;-43
2021/10/06 02:07:48;;;;;;;;;;;;;;;20.00;62.72;100358.25;2083980;28;20388;-43
2021/10/06 02:08:48;;;;;;;;;;;;;;;19.99;62.84;100360.13;2084617;28;19920;-43
2021/10/06 02:09:49;;;;;;;;;;;;;;;19.99;62.89;100361.97;2084984;28;20196;-43
2021/10/06 02:10:49;;;;;;;;;;;;;;;19.98;62.85;100358.38;2084008;28;20394;-43
2021/10/06 02:11:49;;;;;;;;;;;;;;;19.98;62.84;100358.38;2082943;28;19912;-43
2021/10/06 02:12:49;;;;;;;;;;;;;;;19.99;62.92;100357.41;2085118;28;19978;-43
2021/10/06 02:13:50;;;;;;;;;;;;;;;19.98;62.73;100361.13;2085053;28;19916;-43
2021/10/06 02:14:50;;;;;;;;;;;;;;;19.99;62.88;100367.47;2084418;28;20786;-43
2021/10/06 02:15:50;;;;;;;;;;;;;;;19.98;62.72;100361.13;2084714;28;20001;-43
2021/10/06 02:16:51;;;;;;;;;;;;;;;19.98;62.72;100363.88;2083567;28;19955;-43
2021/10/06 02:17:52;;;;;;;;;;;;;;;19.98;62.86;100361.13;2082782;28;19971;-43
2021/10/06 02:18:52;;;;;;;;;;;;;;;19.98;62.81;100361.13;2085021;28;19923;-43
2021/10/06 02:19:52;;;;;;;;;;;;;;;19.99;62.81;100367.47;2084134;28;20350;-43
2021/10/06 02:20:53;;;;;;;;;;;;;;;19.99;62.85;100361.97;2084289;28;19923;-43
2021/10/06 02:21:53;;;;;;;;;;;;;;;19.99;62.71;100364.72;2082765;28;19917;-43
2021/10/06 02:22:53;;;;;;;;;;;;;;;19.98;62.83;100366.59;2085458;28;20541;-43
2021/10/06 02:23:54;;;;;;;;;;;;;;;19.98;62.82;100366.59;2084003;28;19967;-43
2021/10/06 02:24:54;;;;;;;;;;;;;;;19.99;62.82;100362.88;2085670;28;19967;-43
2021/10/06 02:25:54;;;;;;;;;;;;;;;19.99;62.89;100368.34;2084140;28;19963;-43
2021/10/06 02:26:54;;;;;;;;;;;;;;;19.99;62.85;100367.47;2084155;28;20298;-43
2021/10/06 02:27:55;;;;;;;;;;;;;;;19.99;62.73;100362.88;2084187;28;19920;-43
2021/10/06 02:28:55;;;;;;;;;;;;;;;19.99;62.84;100365.59;2083699;28;19929;-43
2021/10/06 02:29:55;;;;;;;;;;;;;;;19.99;62.67;100357.41;2085320;28;19994;-43
2021/10/06 02:30:56;;;;;;;;;;;;;;;19.98;62.86;100366.59;2084219;28;19916;-43
2021/10/06 02:31:56;;;;;;;;;;;;;;;19.99;62.84;100368.34;2081664;28;20379;-43
2021/10/06 02:32:56;;;;;;;;;;;;;;;19.98;62.88;100363.88;2084563;28;19959;-43
2021/10/06 02:33:56;;;;;;;;;;;;;;;19.99;62.78;100370.19;2082654;28;21811;-43
2021/10/06 02:34:57;;;;;;;;;;;;;;;19.98;62.74;100366.59;2082933;28;19977;-43
2021/10/06 02:35:57;;;;;;;;;;;;;;;19.99;62.92;100362.88;2083772;28;20396;-43
2021/10/06 02:36:58;;;;;;;;;;;;;;;19.98;62.88;100363.88;2083821;28;20872;-43
2021/10/06 02:37:58;;;;;;;;;;;;;;;19.99;62.85;100375.66;2082845;28;19925;-43
2021/10/06 02:38:58;;;;;;;;;;;;;;;19.98;62.64;100372.06;2084725;28;19925;-43
2021/10/06 02:39:59;;;;;;;;;;;;;;;19.98;62.71;100383.03;2075105;28;20024;-43
2021/10/06 02:40:59;;;;;;;;;;;;;;;19.98;62.72;100380.28;2074076;28;20213;-43
2021/10/06 02:41:59;;;;;;;;;;;;;;;19.98;62.81;100376.69;2084673;28;19992;-43
2021/10/06 02:43:00;;;;;;;;;;;;;;;19.98;62.76;100385.75;2081694;28;19916;-43
2021/10/06 02:44:00;;;;;;;;;;;;;;;19.97;62.83;100375.84;2085688;28;19916;-43
2021/10/06 02:45:00;;;;;;;;;;;;;;;19.97;62.86;100378.56;2083441;28;20366;-43
2021/10/06 02:46:01;;;;;;;;;;;;;;;19.98;62.75;100379.44;2084140;28;19926;-43
2021/10/06 02:47:02;;;;;;;;;;;;;;;19.98;62.84;100384.91;2083276;28;19916;-43
2021/10/06 02:48:02;;;;;;;;;;;;;;;19.97;62.71;100381.31;2070836;28;19925;-43
2021/10/06 02:49:03;;;;;;;;;;;;;;;19.97;62.65;100383.19;2073646;28;19921;-43
2021/10/06 02:50:06;;;;;;;;;;;;;;;19.97;62.91;100385.91;2084825;28;20326;-43
2021/10/06 02:51:06;;;;;;;;;;;;;;;19.97;62.72;100380.44;2082726;28;20016;-43
2021/10/06 02:52:06;;;;;;;;;;;;;;;19.97;62.86;100386.78;2083926;28;19932;-43
2021/10/06 02:53:07;;;;;;;;;;;;;;;19.97;62.79;100385.91;2084890;28;19950;-43
2021/10/06 02:54:07;;;;;;;;;;;;;;;19.96;62.75;100379.56;2084473;28;20107;-43
2021/10/06 02:55:08;;;;;;;;;;;;;;;19.96;62.84;100379.56;2085676;28;19954;-43
2021/10/06 02:56:08;;;;;;;;;;;;;;;19.96;62.80;100379.56;2084938;28;19971;-43
2021/10/06 02:57:08;;;;;;;;;;;;;;;19.97;62.67;100370.38;2081221;28;20161;-43
2021/10/06 02:58:09;;;;;;;;;;;;;;;19.96;62.70;100368.63;2083701;28;19916;-43
2021/10/06 02:59:10;;;;;;;;;;;;;;;19.96;62.62;100368.63;2083953;28;20293;-43
2021/10/06 03:00:11;;;;;;;;;;;;;;;19.96;62.83;100363.16;2084372;28;19924;-43
2021/10/06 03:01:11;;;;;;;;;;;;;;;19.96;62.74;100362.28;2083899;28;19914;-43
2021/10/06 03:02:11;;;;;;;;;;;;;;;19.95;62.82;100358.69;2084771;28;20405;-43
2021/10/06 03:03:11;;;;;;;;;;;;;;;19.96;62.67;100356.81;2083894;28;20015;-43
2021/10/06 03:04:12;;;;;;;;;;;;;;;19.95;62.73;100350.50;2084934;28;20116;-43
2021/10/06 03:05:13;;;;;;;;;;;;;;;19.95;63.00;100345.03;2074431;28;19920;-43
2021/10/06 03:06:13;;;;;;;;;;;;;;;19.96;62.80;100337.66;2075800;28;19952;-43
2021/10/06 03:07:14;;;;;;;;;;;;;;;19.94;62.89;100332.34;2084891;28;20200;-43
2021/10/06 03:08:14;;;;;;;;;;;;;;;19.94;62.64;100337.81;2085027;28;19924;-43
2021/10/06 03:09:14;;;;;;;;;;;;;;;19.94;62.72;100351.47;2083973;28;20087;-43
2021/10/06 03:10:15;;;;;;;;;;;;;;;19.93;62.73;100341.56;2085418;28;19973;-43
2021/10/06 03:11:15;;;;;;;;;;;;;;;19.94;62.75;100343.28;2083533;28;20714;-43
2021/10/06 03:12:15;;;;;;;;;;;;;;;19.93;62.71;100347.03;2081100;28;19908;-43
2021/10/06 03:13:16;;;;;;;;;;;;;;;19.93;62.71;100352.50;2084129;28;19974;-43
2021/10/06 03:14:16;;;;;;;;;;;;;;;19.94;62.65;100348.75;2083963;28;20224;-43
2021/10/06 03:15:16;;;;;;;;;;;;;;;19.93;62.69;100357.97;2084715;28;19909;-43
2021/10/06 03:16:17;;;;;;;;;;;;;;;19.93;62.71;100357.97;2076651;28;19925;-43
2021/10/06 03:17:17;;;;;;;;;;;;;;;19.94;62.85;100359.69;2077139;28;19924;-43
2021/10/06 03:18:17;;;;;;;;;;;;;;;19.93;62.59;100368.94;2080037;28;20246;-43
2021/10/06 03:19:18;;;;;;;;;;;;;;;19.94;62.65;100362.44;2081403;28;19923;-43
2021/10/06 03:20:18;;;;;;;;;;;;;;;19.94;62.68;100364.31;2078112;28;20385;-43
2021/10/06 03:21:18;;;;;;;;;;;;;;;19.95;62.77;100366.06;2082009;28;19970;-43
2021/10/06 03:22:18;;;;;;;;;;;;;;;19.93;62.62;100366.19;2084872;28;19927;-43
2021/10/06 03:23:19;;;;;;;;;;;;;;;19.94;62.89;100373.38;2084241;28;19909;-43
2021/10/06 03:24:19;;;;;;;;;;;;;;;19.93;62.83;100374.41;2075878;28;20003;-43
2021/10/06 03:25:20;;;;;;;;;;;;;;;19.93;62.83;100368.94;2075542;28;19967;-43
2021/10/06 03:26:21;;;;;;;;;;;;;;;19.94;62.61;100369.78;2084593;28;20334;-43
2021/10/06 03:27:21;;;;;;;;;;;;;;;19.94;62.73;100376.09;2083203;28;19948;-43
2021/10/06 03:28:22;;;;;;;;;;;;;;;19.93;62.73;100374.41;2077641;28;19916;-43
2021/10/06 03:29:22;;;;;;;;;;;;;;;19.93;62.80;100379.88;2076551;28;19913;-44
2021/10/06 03:30:22;;;;;;;;;;;;;;;19.94;62.63;100376.09;2082554;28;20273;-43
2021/10/06 03:31:22;;;;;;;;;;;;;;;19.92;62.65;100373.53;2085895;28;19935;-43
2021/10/06 03:32:23;;;;;;;;;;;;;;;19.93;62.73;100374.41;2082956;28;20382;-43
2021/10/06 03:33:23;;;;;;;;;;;;;;;19.93;62.71;100379.88;2084403;28;19908;-43
2021/10/06 03:34:23;;;;;;;;;;;;;;;19.93;62.64;100374.41;2085626;28;20521;-43
2021/10/06 03:35:24;;;;;;;;;;;;;;;19.93;62.70;100379.88;2081837;28;20458;-43
2021/10/06 03:36:24;;;;;;;;;;;;;;;19.93;62.79;100377.13;2083198;28;20289;-43
2021/10/06 03:37:24;;;;;;;;;;;;;;;19.94;62.55;100381.59;2083923;28;20080;-43
2021/10/06 03:38:25;;;;;;;;;;;;;;;19.94;62.67;100381.59;2086374;28;19912;-43
2021/10/06 03:39:25;;;;;;;;;;;;;;;19.93;62.76;100379.88;2083881;28;20011;-43
2021/10/06 03:40:26;;;;;;;;;;;;;;;19.93;62.72;100377.13;2073321;28;20058;-43
2021/10/06 03:41:27;;;;;;;;;;;;;;;19.93;62.73;100385.34;2073004;28;19984;-43
2021/10/06 03:42:27;;;;;;;;;;;;;;;19.93;62.76;100379.88;2085674;28;19912;-43
2021/10/06 03:43:27;;;;;;;;;;;;;;;19.92;62.71;100380.91;2081080;28;20452;-43
2021/10/06 03:44:28;;;;;;;;;;;;;;;19.92;62.71;100389.97;2078992;28;20140;-43
2021/10/06 03:45:28;;;;;;;;;;;;;;;19.93;62.65;100379.88;2083412;28;19981;-43
2021/10/06 03:46:29;;;;;;;;;;;;;;;19.93;62.75;100379.88;2085233;28;19967;-43
2021/10/06 03:47:29;;;;;;;;;;;;;;;19.93;62.62;100388.06;2080161;28;20330;-43
2021/10/06 03:48:30;;;;;;;;;;;;;;;19.91;62.60;100381.88;2085449;28;19966;-43
2021/10/06 03:49:31;;;;;;;;;;;;;;;19.92;62.62;100395.44;2081906;28;20040;-43
2021/10/06 03:50:31;;;;;;;;;;;;;;;19.91;62.62;100392.81;2085879;28;19917;-43
2021/10/06 03:51:31;;;;;;;;;;;;;;;19.92;62.70;100397.31;2083001;28;19916;-43
2021/10/06 03:52:31;;;;;;;;;;;;;;;19.91;62.59;100396.41;2084309;28;20556;-44
2021/10/06 03:53:32;;;;;;;;;;;;;;;19.92;62.75;100397.31;2083382;28;19932;-43
2021/10/06 03:54:32;;;;;;;;;;;;;;;19.92;62.87;100394.56;2083386;28;19963;-43
2021/10/06 03:55:32;;;;;;;;;;;;;;;19.92;62.90;100394.56;2083476;28;20244;-43
2021/10/06 03:56:33;;;;;;;;;;;;;;;19.92;62.78;100395.44;2084168;28;19917;-42
2021/10/06 03:57:33;;;;;;;;;;;;;;;19.92;62.80;100394.56;2084919;28;19923;-43
2021/10/06 03:58:34;;;;;;;;;;;;;;;19.92;62.70;100394.56;2082302;28;19920;-43
2021/10/06 03:59:35;;;;;;;;;;;;;;;19.92;62.87;100402.78;2082996;28;20776;-43
2021/10/06 04:00:35;;;;;;;;;;;;;;;19.92;62.65;100405.50;2084336;28;19920;-43
2021/10/06 04:01:35;;;;;;;;;;;;;;;19.91;62.82;100415.56;2084034;28;19916;-43
2021/10/06 04:02:35;;;;;;;;;;;;;;;19.91;62.71;100421.03;2083433;28;19916;-43
2021/10/06 04:03:36;;;;;;;;;;;;;;;19.91;62.82;100420.19;2084427;28;19955;-43
2021/10/06 04:04:36;;;;;;;;;;;;;;;19.92;62.83;100416.47;2082846;28;19939;-42
2021/10/06 04:05:37;;;;;;;;;;;;;;;19.90;62.77;100419.34;2089037;28;20035;-43
2021/10/06 04:06:37;;;;;;;;;;;;;;;19.92;62.87;100413.72;2084549;28;19974;-43
2021/10/06 04:07:37;;;;;;;;;;;;;;;19.91;62.85;100415.56;2081982;28;19909;-43
2021/10/06 04:08:38;;;;;;;;;;;;;;;19.91;62.71;100417.44;2085081;28;19924;-43
2021/10/06 04:09:38;;;;;;;;;;;;;;;19.90;62.68;100413.88;2082885;28;19959;-43
2021/10/06 04:10:38;;;;;;;;;;;;;;;19.91;62.91;100415.56;2083698;28;20674;-43
2021/10/06 04:11:39;;;;;;;;;;;;;;;19.91;62.98;100409.25;2085125;28;19916;-43
2021/10/06 04:12:39;;;;;;;;;;;;;;;19.90;62.69;100408.38;2082676;28;19975;-43
2021/10/06 04:13:39;;;;;;;;;;;;;;;19.92;62.91;100416.47;2084908;28;20351;-43
2021/10/06 04:14:40;;;;;;;;;;;;;;;19.91;62.93;100414.72;2084817;28;20026;-43
2021/10/06 04:15:40;;;;;;;;;;;;;;;19.92;63.00;100416.47;2081703;28;19923;-43
2021/10/06 04:16:40;;;;;;;;;;;;;;;19.91;62.96;100420.19;2087675;28;19917;-43
2021/10/06 04:17:41;;;;;;;;;;;;;;;19.90;62.90;100415.75;2082675;28;20232;-43
2021/10/06 04:18:41;;;;;;;;;;;;;;;19.91;62.72;100414.72;2073737;28;19920;-43
2021/10/06 04:19:42;;;;;;;;;;;;;;;19.90;62.78;100422.06;2075950;28;20442;-43
2021/10/06 04:20:42;;;;;;;;;;;;;;;19.89;62.98;100420.34;2085761;28;19917;-43
2021/10/06 04:21:42;;;;;;;;;;;;;;;19.90;62.85;100418.47;2083380;28;19949;-44
2021/10/06 04:22:43;;;;;;;;;;;;;;;19.90;62.92;100419.34;2083019;28;19944;-43
2021/10/06 04:23:43;;;;;;;;;;;;;;;19.90;62.86;100418.47;2081626;28;19916;-43
2021/10/06 04:24:43;;;;;;;;;;;;;;;19.91;62.77;100417.44;2085102;28;19917;-43
2021/10/06 04:25:44;;;;;;;;;;;;;;;19.90;62.74;100413.00;2074696;28;20172;-43
2021/10/06 04:26:44;;;;;;;;;;;;;;;19.89;62.86;100417.63;2075338;28;20870;-43
2021/10/06 04:27:45;;;;;;;;;;;;;;;19.89;62.73;100414.88;2084334;28;19916;-43
2021/10/06 04:28:45;;;;;;;;;;;;;;;19.90;62.89;100429.41;2081326;28;20044;-43
2021/10/06 04:29:45;;;;;;;;;;;;;;;19.89;62.65;100424.94;2072038;28;20320;-43
2021/10/06 04:30:46;;;;;;;;;;;;;;;19.90;62.88;100429.41;2074754;28;20389;-43
2021/10/06 04:31:46;;;;;;;;;;;;;;;19.90;62.99;100423.94;2083051;28;20049;-43
2021/10/06 04:32:46;;;;;;;;;;;;;;;19.90;62.86;100433.00;2074848;28;19989;-43
2021/10/06 04:33:47;;;;;;;;;;;;;;;19.89;62.75;100427.69;2072822;28;20698;-43
2021/10/06 04:34:47;;;;;;;;;;;;;;;19.89;62.94;100428.56;2083203;28;19973;-43
2021/10/06 04:35:48;;;;;;;;;;;;;;;19.89;62.81;100431.28;2083325;28;20185;-43
2021/10/06 04:36:48;;;;;;;;;;;;;;;19.89;62.83;100425.81;2082877;28;20546;-43
2021/10/06 04:37:48;;;;;;;;;;;;;;;19.89;62.83;100422.19;2083701;28;20248;-43
2021/10/06 04:38:48;;;;;;;;;;;;;;;19.89;62.81;100427.69;2083127;28;19916;-43
2021/10/06 04:39:49;;;;;;;;;;;;;;;19.89;62.90;100430.41;2083765;28;20212;-43
2021/10/06 04:40:49;;;;;;;;;;;;;;;19.89;62.87;100438.63;2083310;28;19916;-43
2021/10/06 04:41:49;;;;;;;;;;;;;;;19.88;62.47;100425.97;2073741;28;20241;-43
2021/10/06 04:42:50;;;;;;;;;;;;;;;19.89;62.66;100438.63;2074758;28;19916;-43
2021/10/06 04:43:50;;;;;;;;;;;;;;;19.87;62.86;100436.06;2083148;28;20277;-43
2021/10/06 04:44:51;;;;;;;;;;;;;;;19.87;62.66;100436.06;2082521;28;20317;-43
2021/10/06 04:45:51;;;;;;;;;;;;;;;19.88;62.70;100442.38;2083215;28;19928;-43
2021/10/06 04:46:51;;;;;;;;;;;;;;;19.88;62.71;100436.91;2083670;28;19916;-43
2021/10/06 04:47:51;;;;;;;;;;;;;;;19.88;62.79;100436.91;2081362;28;19925;-43
2021/10/06 04:48:52;;;;;;;;;;;;;;;19.88;62.75;100443.22;2078401;28;19998;-43
2021/10/06 04:49:52;;;;;;;;;;;;;;;19.88;62.56;100442.38;2083934;28;19964;-43
2021/10/06 04:50:52;;;;;;;;;;;;;;;19.89;62.67;100446.81;2081111;28;19955;-43
2021/10/06 04:51:53;;;;;;;;;;;;;;;19.88;62.72;100458.78;2082170;28;20876;-43
2021/10/06 04:52:53;;;;;;;;;;;;;;;19.88;62.71;100453.31;2072763;28;20343;-43
2021/10/06 04:53:53;;;;;;;;;;;;;;;19.88;62.64;100458.78;2072188;28;19925;-43
2021/10/06 04:54:53;;;;;;;;;;;;;;;19.87;62.83;100460.66;2083203;28;19921;-43
2021/10/06 04:55:54;;;;;;;;;;;;;;;19.87;62.72;100451.59;2084333;28;19990;-43
2021/10/06 04:56:54;;;;;;;;;;;;;;;19.87;62.81;100457.94;2083422;28;20504;-43
2021/10/06 04:57:54;;;;;;;;;;;;;;;19.87;62.88;100462.56;2083660;28;20022;-43
2021/10/06 04:58:55;;;;;;;;;;;;;;;19.88;62.83;100456.06;2082179;28;19939;-43
2021/10/06 04:59:55;;;;;;;;;;;;;;;19.87;62.85;100457.06;2084133;28;20026;-43
2021/10/06 05:00:55;;;;;;;;;;;;;;;19.87;62.75;100457.94;2081945;28;19942;-43
2021/10/06 05:01:56;;;;;;;;;;;;;;;19.87;62.67;100462.56;2083029;28;19942;-43
2021/10/06 05:03:10;;;;;;;;;;;;;;;19.88;62.73;100475.22;2083596;28;19920;-43
2021/10/06 05:04:10;;;;;;;;;;;;;;;19.86;62.75;100472.59;2083293;28;19992;-43
2021/10/06 05:05:10;;;;;;;;;;;;;;;19.87;62.67;100476.22;2081970;28;20015;-43
2021/10/06 05:06:11;;;;;;;;;;;;;;;19.86;62.72;100474.47;2082447;28;19920;-43
2021/10/06 05:07:11;;;;;;;;;;;;;;;19.86;62.87;100477.22;2082776;28;20286;-43
2021/10/06 05:08:11;;;;;;;;;;;;;;;19.87;62.85;100478.97;2084210;28;19929;-42
2021/10/06 05:09:12;;;;;;;;;;;;;;;19.87;62.77;100476.22;2082652;28;19917;-42
2021/10/06 05:10:12;;;;;;;;;;;;;;;19.86;62.81;100478.06;2083918;28;19912;-42